sensor_id;sensor_type;location;lat;lon;timestamp;pressure;altitude;pressure_sealevel;temperature;humidity
69570;BME280;56781;42.292;23.146;2022-12-05T00:03:51;96477.88;;;5.11;88.54
69570;BME280;56781;42.292;23.146;2022-12-05T00:06:19;96434.66;;;4.82;88.55
69570;BME280;56781;42.292;23.146;2022-12-05T00:08:46;96444.47;;;4.81;88.99
69570;BME280;56781;42.292;23.146;2022-12-05T00:11:16;96437.72;;;4.74;88.90
69570;BME280;56781;42.292;23.146;2022-12-05T00:13:44;96445.28;;;4.82;89.02
69570;BME280;56781;42.292;23.146;2022-12-05T00:16:14;96458.75;;;4.80;89.09
69570;BME280;56781;42.292;23.146;2022-12-05T00:18:42;96443.91;;;4.62;90.03
69570;BME280;56781;42.292;23.146;2022-12-05T00:21:19;96404.81;;;4.41;89.59
69570;BME280;56781;42.292;23.146;2022-12-05T00:23:46;96467.78;;;4.79;90.07
69570;BME280;56781;42.292;23.146;2022-12-05T00:26:14;96434.00;;;4.58;90.73
69570;BME280;56781;42.292;23.146;2022-12-05T00:28:41;96454.34;;;4.69;90.61
69570;BME280;56781;42.292;23.146;2022-12-05T00:31:11;96447.72;;;4.55;91.43
69570;BME280;56781;42.292;23.146;2022-12-05T00:33:39;96420.50;;;4.42;91.25
69570;BME280;56781;42.292;23.146;2022-12-05T00:36:09;96470.16;;;4.64;91.50
69570;BME280;56781;42.292;23.146;2022-12-05T00:38:36;96436.84;;;4.39;91.56
69570;BME280;56781;42.292;23.146;2022-12-05T00:41:06;96439.28;;;4.58;91.10
69570;BME280;56781;42.292;23.146;2022-12-05T00:43:34;96486.34;;;4.79;91.47
69570;BME280;56781;42.292;23.146;2022-12-05T00:46:05;96451.53;;;4.59;91.53
69570;BME280;56781;42.292;23.146;2022-12-05T00:48:32;96486.28;;;4.91;91.17
69570;BME280;56781;42.292;23.146;2022-12-05T00:51:01;96494.13;;;4.69;91.63
69570;BME280;56781;42.292;23.146;2022-12-05T00:53:29;96490.19;;;4.72;91.89
69570;BME280;56781;42.292;23.146;2022-12-05T00:56:00;96436.53;;;4.36;91.74
69570;BME280;56781;42.292;23.146;2022-12-05T00:58:27;96456.16;;;4.52;91.57
69570;BME280;56781;42.292;23.146;2022-12-05T01:00:54;96432.44;;;4.45;91.39
69570;BME280;56781;42.292;23.146;2022-12-05T01:03:21;96439.06;;;4.59;91.01
69570;BME280;56781;42.292;23.146;2022-12-05T01:05:48;96419.75;;;4.47;90.83
69570;BME280;56781;42.292;23.146;2022-12-05T01:08:15;96452.41;;;4.64;91.44
69570;BME280;56781;42.292;23.146;2022-12-05T01:10:51;96458.34;;;4.72;91.35
69570;BME280;56781;42.292;23.146;2022-12-05T01:13:18;96424.84;;;4.49;91.13
69570;BME280;56781;42.292;23.146;2022-12-05T01:15:45;96468.75;;;4.73;91.41
69570;BME280;56781;42.292;23.146;2022-12-05T01:18:12;96469.72;;;4.84;91.90
69570;BME280;56781;42.292;23.146;2022-12-05T01:20:39;96428.13;;;4.56;91.22
69570;BME280;56781;42.292;23.146;2022-12-05T01:23:07;96445.75;;;4.62;91.22
69570;BME280;56781;42.292;23.146;2022-12-05T01:25:34;96410.72;;;4.31;91.74
69570;BME280;56781;42.292;23.146;2022-12-05T01:28:01;96428.47;;;4.31;91.81
69570;BME280;56781;42.292;23.146;2022-12-05T01:30:28;96465.09;;;4.62;91.67
69570;BME280;56781;42.292;23.146;2022-12-05T01:32:55;96469.34;;;4.63;91.99
69570;BME280;56781;42.292;23.146;2022-12-05T01:35:21;96452.97;;;4.66;92.23
69570;BME280;56781;42.292;23.146;2022-12-05T01:37:50;96434.97;;;4.52;91.50
69570;BME280;56781;42.292;23.146;2022-12-05T01:40:17;96420.56;;;4.48;91.68
69570;BME280;56781;42.292;23.146;2022-12-05T01:42:43;96413.34;;;4.43;92.00
69570;BME280;56781;42.292;23.146;2022-12-05T01:45:21;96452.13;;;4.78;91.46
69570;BME280;56781;42.292;23.146;2022-12-05T01:47:51;96447.75;;;4.72;91.53
69570;BME280;56781;42.292;23.146;2022-12-05T01:50:19;96469.06;;;4.94;91.11
69570;BME280;56781;42.292;23.146;2022-12-05T01:52:46;96444.16;;;4.78;91.18
69570;BME280;56781;42.292;23.146;2022-12-05T01:55:16;96473.44;;;5.00;90.65
69570;BME280;56781;42.292;23.146;2022-12-05T01:57:44;96463.31;;;4.97;90.65
69570;BME280;56781;42.292;23.146;2022-12-05T02:00:18;96416.91;;;4.82;90.02
69570;BME280;56781;42.292;23.146;2022-12-05T02:02:58;96471.81;;;5.16;89.73
69570;BME280;56781;42.292;23.146;2022-12-05T02:05:29;96422.59;;;4.74;89.71
69570;BME280;56781;42.292;23.146;2022-12-05T02:07:58;96449.13;;;4.91;89.20
69570;BME280;56781;42.292;23.146;2022-12-05T02:10:28;96401.94;;;4.59;88.81
69570;BME280;56781;42.292;23.146;2022-12-05T02:13:04;96372.72;;;4.26;90.41
69570;BME280;56781;42.292;23.146;2022-12-05T02:15:41;96418.66;;;4.77;90.08
69570;BME280;56781;42.292;23.146;2022-12-05T02:18:28;96461.06;;;5.05;89.78
69570;BME280;56781;42.292;23.146;2022-12-05T02:21:09;96414.72;;;4.79;90.16
69570;BME280;56781;42.292;23.146;2022-12-05T02:32:23;96403.81;;;4.59;90.25
69570;BME280;56781;42.292;23.146;2022-12-05T02:37:39;96404.59;;;4.76;89.82
69570;BME280;56781;42.292;23.146;2022-12-05T02:40:18;96379.81;;;4.37;90.42
69570;BME280;56781;42.292;23.146;2022-12-05T02:45:37;96405.00;;;4.68;90.22
69570;BME280;56781;42.292;23.146;2022-12-05T02:48:05;96384.91;;;4.55;90.70
69570;BME280;56781;42.292;23.146;2022-12-05T02:50:37;96385.25;;;4.59;90.29
69570;BME280;56781;42.292;23.146;2022-12-05T02:53:10;96406.84;;;4.68;90.68
69570;BME280;56781;42.292;23.146;2022-12-05T02:55:40;96434.56;;;4.60;92.32
69570;BME280;56781;42.292;23.146;2022-12-05T02:58:16;96425.78;;;4.42;92.56
69570;BME280;56781;42.292;23.146;2022-12-05T03:00:47;96396.25;;;3.93;92.59
69570;BME280;56781;42.292;23.146;2022-12-05T03:03:17;96379.59;;;3.81;93.34
69570;BME280;56781;42.292;23.146;2022-12-05T03:06:05;96395.22;;;3.94;94.17
69570;BME280;56781;42.292;23.146;2022-12-05T03:08:54;96411.22;;;3.88;94.77
69570;BME280;56781;42.292;23.146;2022-12-05T03:11:23;96415.84;;;3.92;94.88
69570;BME280;56781;42.292;23.146;2022-12-05T03:13:51;96435.16;;;4.05;95.11
69570;BME280;56781;42.292;23.146;2022-12-05T03:16:26;96410.69;;;3.86;95.25
69570;BME280;56781;42.292;23.146;2022-12-05T03:18:59;96432.41;;;3.99;95.54
69570;BME280;56781;42.292;23.146;2022-12-05T03:21:35;96384.31;;;3.79;94.86
69570;BME280;56781;42.292;23.146;2022-12-05T03:24:06;96425.22;;;4.12;93.88
69570;BME280;56781;42.292;23.146;2022-12-05T03:29:35;96428.53;;;4.19;94.29
69570;BME280;56781;42.292;23.146;2022-12-05T03:38:10;96404.53;;;3.97;94.03
69570;BME280;56781;42.292;23.146;2022-12-05T03:41:20;96440.25;;;4.23;94.67
69570;BME280;56781;42.292;23.146;2022-12-05T03:44:09;96437.50;;;4.18;94.77
69570;BME280;56781;42.292;23.146;2022-12-05T03:46:45;96407.31;;;3.90;94.96
69570;BME280;56781;42.292;23.146;2022-12-05T03:54:45;96411.97;;;4.12;94.04
69570;BME280;56781;42.292;23.146;2022-12-05T03:57:17;96407.72;;;4.11;93.54
69570;BME280;56781;42.292;23.146;2022-12-05T03:59:58;96421.19;;;4.09;94.12
69570;BME280;56781;42.292;23.146;2022-12-05T04:02:49;96435.06;;;4.28;94.26
69570;BME280;56781;42.292;23.146;2022-12-05T04:07:47;96450.69;;;4.58;93.34
69570;BME280;56781;42.292;23.146;2022-12-05T04:10:19;96392.41;;;4.30;93.35
69570;BME280;56781;42.292;23.146;2022-12-05T04:12:51;96392.94;;;4.43;93.02
69570;BME280;56781;42.292;23.146;2022-12-05T04:15:23;96398.72;;;4.57;92.08
69570;BME280;56781;42.292;23.146;2022-12-05T04:17:57;96462.47;;;4.79;92.20
69570;BME280;56781;42.292;23.146;2022-12-05T04:20:35;96411.50;;;4.60;91.96
69570;BME280;56781;42.292;23.146;2022-12-05T04:23:23;96408.75;;;4.38;92.38
69570;BME280;56781;42.292;23.146;2022-12-05T04:26:22;96393.97;;;4.42;92.29
69570;BME280;56781;42.292;23.146;2022-12-05T04:29:10;96404.72;;;4.53;91.75
69570;BME280;56781;42.292;23.146;2022-12-05T04:31:43;96417.59;;;4.44;92.45
69570;BME280;56781;42.292;23.146;2022-12-05T04:34:17;96410.72;;;4.31;93.60
69570;BME280;56781;42.292;23.146;2022-12-05T04:36:58;96417.88;;;4.31;93.62
69570;BME280;56781;42.292;23.146;2022-12-05T04:39:46;96412.19;;;4.39;93.87
69570;BME280;56781;42.292;23.146;2022-12-05T04:42:19;96391.19;;;4.20;93.98
69570;BME280;56781;42.292;23.146;2022-12-05T04:45:02;96431.34;;;4.58;93.08
69570;BME280;56781;42.292;23.146;2022-12-05T04:47:36;96404.50;;;4.37;93.56
69570;BME280;56781;42.292;23.146;2022-12-05T04:50:07;96404.13;;;4.34;93.88
69570;BME280;56781;42.292;23.146;2022-12-05T04:52:35;96463.53;;;4.78;93.43
69570;BME280;56781;42.292;23.146;2022-12-05T04:55:13;96423.38;;;4.58;93.05
69570;BME280;56781;42.292;23.146;2022-12-05T04:57:50;96458.63;;;4.70;92.90
69570;BME280;56781;42.292;23.146;2022-12-05T05:00:18;96465.81;;;4.58;93.74
69570;BME280;56781;42.292;23.146;2022-12-05T05:05:17;96437.16;;;4.26;91.57
69570;BME280;56781;42.292;23.146;2022-12-05T05:07:52;96458.56;;;4.53;91.59
69570;BME280;56781;42.292;23.146;2022-12-05T05:10:41;96355.50;;;3.94;91.20
69570;BME280;56781;42.292;23.146;2022-12-05T05:13:11;96477.66;;;4.67;90.68
69570;BME280;56781;42.292;23.146;2022-12-05T05:15:37;96509.03;;;4.87;90.42
69570;BME280;56781;42.292;23.146;2022-12-05T05:18:04;96502.66;;;4.88;89.61
69570;BME280;56781;42.292;23.146;2022-12-05T05:20:31;96467.06;;;4.38;89.41
69570;BME280;56781;42.292;23.146;2022-12-05T05:22:58;96490.63;;;4.52;88.83
69570;BME280;56781;42.292;23.146;2022-12-05T05:25:25;96486.84;;;4.48;88.36
69570;BME280;56781;42.292;23.146;2022-12-05T05:27:54;96500.13;;;4.36;89.87
69570;BME280;56781;42.292;23.146;2022-12-05T05:30:23;96511.00;;;4.34;90.14
69570;BME280;56781;42.292;23.146;2022-12-05T05:32:50;96482.09;;;4.21;90.42
69570;BME280;56781;42.292;23.146;2022-12-05T05:35:17;96472.09;;;4.11;91.25
69570;BME280;56781;42.292;23.146;2022-12-05T05:37:44;96478.88;;;4.19;90.87
69570;BME280;56781;42.292;23.146;2022-12-05T05:40:12;96526.59;;;4.48;91.19
69570;BME280;56781;42.292;23.146;2022-12-05T05:42:46;96524.31;;;4.51;90.99
69570;BME280;56781;42.292;23.146;2022-12-05T05:45:14;96488.06;;;4.28;91.17
69570;BME280;56781;42.292;23.146;2022-12-05T05:47:42;96479.56;;;4.26;91.71
69570;BME280;56781;42.292;23.146;2022-12-05T05:50:10;96528.31;;;4.54;91.81
69570;BME280;56781;42.292;23.146;2022-12-05T05:52:45;96474.16;;;4.21;92.21
69570;BME280;56781;42.292;23.146;2022-12-05T05:55:12;96441.91;;;4.12;92.09
69570;BME280;56781;42.292;23.146;2022-12-05T05:57:39;96458.97;;;4.16;92.13
69570;BME280;56781;42.292;23.146;2022-12-05T06:00:06;96457.53;;;4.26;92.35
69570;BME280;56781;42.292;23.146;2022-12-05T06:02:34;96489.06;;;4.39;92.59
69570;BME280;56781;42.292;23.146;2022-12-05T06:05:02;96471.34;;;4.28;92.92
69570;BME280;56781;42.292;23.146;2022-12-05T06:07:29;96447.41;;;4.22;92.91
69570;BME280;56781;42.292;23.146;2022-12-05T06:09:56;96485.34;;;4.52;93.19
69570;BME280;56781;42.292;23.146;2022-12-05T06:12:24;96507.38;;;4.69;93.63
69570;BME280;56781;42.292;23.146;2022-12-05T06:14:51;96516.47;;;4.73;93.88
69570;BME280;56781;42.292;23.146;2022-12-05T06:17:18;96506.84;;;4.84;93.91
69570;BME280;56781;42.292;23.146;2022-12-05T06:19:45;96483.75;;;4.68;93.38
69570;BME280;56781;42.292;23.146;2022-12-05T06:22:12;96487.53;;;4.72;93.67
69570;BME280;56781;42.292;23.146;2022-12-05T06:24:39;96498.16;;;4.88;92.92
69570;BME280;56781;42.292;23.146;2022-12-05T06:27:06;96513.88;;;5.07;92.99
69570;BME280;56781;42.292;23.146;2022-12-05T06:29:33;96512.53;;;5.21;91.81
69570;BME280;56781;42.292;23.146;2022-12-05T06:32:01;96509.13;;;5.26;91.08
69570;BME280;56781;42.292;23.146;2022-12-05T06:34:28;96483.75;;;5.13;89.88
69570;BME280;56781;42.292;23.146;2022-12-05T06:36:55;96463.94;;;5.04;88.24
69570;BME280;56781;42.292;23.146;2022-12-05T06:39:22;96490.72;;;5.19;87.82
69570;BME280;56781;42.292;23.146;2022-12-05T06:41:49;96501.25;;;5.48;87.08
69570;BME280;56781;42.292;23.146;2022-12-05T06:44:16;96475.03;;;5.18;86.79
69570;BME280;56781;42.292;23.146;2022-12-05T06:46:43;96482.13;;;5.46;86.43
69570;BME280;56781;42.292;23.146;2022-12-05T06:49:10;96468.72;;;5.58;86.09
69570;BME280;56781;42.292;23.146;2022-12-05T06:51:37;96449.28;;;5.52;85.22
69570;BME280;56781;42.292;23.146;2022-12-05T06:54:04;96467.41;;;5.77;86.13
69570;BME280;56781;42.292;23.146;2022-12-05T06:56:31;96511.09;;;6.03;85.22
69570;BME280;56781;42.292;23.146;2022-12-05T06:58:57;96463.25;;;5.86;83.99
69570;BME280;56781;42.292;23.146;2022-12-05T07:01:24;96458.22;;;5.85;84.55
69570;BME280;56781;42.292;23.146;2022-12-05T07:04:13;96464.22;;;5.97;85.43
69570;BME280;56781;42.292;23.146;2022-12-05T07:06:43;96470.47;;;6.08;85.75
69570;BME280;56781;42.292;23.146;2022-12-05T07:09:18;96498.47;;;6.15;85.69
69570;BME280;56781;42.292;23.146;2022-12-05T07:11:49;96502.00;;;6.21;85.29
69570;BME280;56781;42.292;23.146;2022-12-05T07:14:17;96460.53;;;5.98;85.88
69570;BME280;56781;42.292;23.146;2022-12-05T07:17:04;96468.06;;;6.28;84.71
69570;BME280;56781;42.292;23.146;2022-12-05T07:19:31;96468.38;;;6.32;84.41
69570;BME280;56781;42.292;23.146;2022-12-05T07:21:58;96441.72;;;6.27;84.34
69570;BME280;56781;42.292;23.146;2022-12-05T07:24:25;96477.06;;;6.49;84.44
69570;BME280;56781;42.292;23.146;2022-12-05T07:26:52;96487.66;;;6.44;84.77
69570;BME280;56781;42.292;23.146;2022-12-05T07:29:19;96434.09;;;6.08;85.08
69570;BME280;56781;42.292;23.146;2022-12-05T07:31:46;96495.31;;;6.62;85.22
69570;BME280;56781;42.292;23.146;2022-12-05T07:34:13;96492.28;;;6.54;84.56
69570;BME280;56781;42.292;23.146;2022-12-05T07:36:40;96467.78;;;6.25;85.20
69570;BME280;56781;42.292;23.146;2022-12-05T07:39:08;96435.63;;;6.04;85.44
69570;BME280;56781;42.292;23.146;2022-12-05T07:41:35;96505.06;;;6.30;86.49
69570;BME280;56781;42.292;23.146;2022-12-05T07:44:02;96485.44;;;6.36;85.54
69570;BME280;56781;42.292;23.146;2022-12-05T07:46:29;96509.28;;;6.53;85.67
69570;BME280;56781;42.292;23.146;2022-12-05T07:48:56;96442.72;;;6.20;85.51
69570;BME280;56781;42.292;23.146;2022-12-05T07:51:23;96451.44;;;6.38;85.25
69570;BME280;56781;42.292;23.146;2022-12-05T07:53:50;96473.19;;;6.57;84.26
69570;BME280;56781;42.292;23.146;2022-12-05T07:56:18;96465.38;;;6.50;84.88
69570;BME280;56781;42.292;23.146;2022-12-05T07:58:47;96476.75;;;6.73;83.87
69570;BME280;56781;42.292;23.146;2022-12-05T08:01:17;96474.94;;;6.73;84.29
69570;BME280;56781;42.292;23.146;2022-12-05T08:03:45;96455.13;;;6.64;84.00
69570;BME280;56781;42.292;23.146;2022-12-05T08:06:18;96480.84;;;6.80;83.79
69570;BME280;56781;42.292;23.146;2022-12-05T08:08:45;96462.09;;;6.70;83.31
69570;BME280;56781;42.292;23.146;2022-12-05T08:11:23;96446.97;;;6.71;83.19
69570;BME280;56781;42.292;23.146;2022-12-05T08:13:50;96463.16;;;6.96;82.63
69570;BME280;56781;42.292;23.146;2022-12-05T08:16:20;96505.00;;;7.33;82.10
69570;BME280;56781;42.292;23.146;2022-12-05T08:18:48;96454.00;;;7.14;82.19
69570;BME280;56781;42.292;23.146;2022-12-05T08:21:19;96504.94;;;7.60;81.57
69570;BME280;56781;42.292;23.146;2022-12-05T08:23:46;96493.53;;;7.70;80.79
69570;BME280;56781;42.292;23.146;2022-12-05T08:26:17;96476.16;;;7.62;79.62
69570;BME280;56781;42.292;23.146;2022-12-05T08:28:49;96483.81;;;7.53;79.44
69570;BME280;56781;42.292;23.146;2022-12-05T08:31:18;96433.69;;;7.45;79.21
69570;BME280;56781;42.292;23.146;2022-12-05T08:33:45;96507.34;;;8.09;78.55
69570;BME280;56781;42.292;23.146;2022-12-05T08:36:13;96485.94;;;7.94;78.91
69570;BME280;56781;42.292;23.146;2022-12-05T08:38:44;96495.59;;;8.05;78.01
69570;BME280;56781;42.292;23.146;2022-12-05T08:41:13;96473.34;;;7.84;77.10
69570;BME280;56781;42.292;23.146;2022-12-05T08:43:41;96518.22;;;7.97;77.26
69570;BME280;56781;42.292;23.146;2022-12-05T08:46:08;96476.47;;;7.66;76.88
69570;BME280;56781;42.292;23.146;2022-12-05T08:48:36;96505.28;;;7.74;77.42
69570;BME280;56781;42.292;23.146;2022-12-05T08:51:04;96486.59;;;7.69;76.91
69570;BME280;56781;42.292;23.146;2022-12-05T08:53:32;96465.13;;;7.48;77.17
69570;BME280;56781;42.292;23.146;2022-12-05T08:56:05;96475.00;;;7.48;77.90
69570;BME280;56781;42.292;23.146;2022-12-05T08:58:33;96475.00;;;7.48;78.33
69570;BME280;56781;42.292;23.146;2022-12-05T09:01:05;96519.38;;;7.69;79.47
69570;BME280;56781;42.292;23.146;2022-12-05T09:03:32;96456.97;;;7.23;79.72
69570;BME280;56781;42.292;23.146;2022-12-05T09:06:20;96476.81;;;7.42;79.56
69570;BME280;56781;42.292;23.146;2022-12-05T09:08:48;96449.09;;;7.38;80.01
69570;BME280;56781;42.292;23.146;2022-12-05T09:11:18;96477.47;;;7.60;79.04
69570;BME280;56781;42.292;23.146;2022-12-05T09:13:47;96499.41;;;7.72;79.03
69570;BME280;56781;42.292;23.146;2022-12-05T09:16:16;96468.47;;;7.66;78.65
69570;BME280;56781;42.292;23.146;2022-12-05T09:18:44;96446.03;;;7.62;78.31
69570;BME280;56781;42.292;23.146;2022-12-05T09:21:15;96488.03;;;7.87;77.92
69570;BME280;56781;42.292;23.146;2022-12-05T09:23:43;96457.13;;;7.91;77.59
69570;BME280;56781;42.292;23.146;2022-12-05T09:26:13;96459.34;;;8.09;77.09
69570;BME280;56781;42.292;23.146;2022-12-05T09:28:42;96444.19;;;8.15;76.43
69570;BME280;56781;42.292;23.146;2022-12-05T09:31:12;96460.22;;;8.30;76.29
69570;BME280;56781;42.292;23.146;2022-12-05T09:33:40;96449.06;;;8.33;76.47
69570;BME280;56781;42.292;23.146;2022-12-05T09:36:11;96463.00;;;8.56;75.50
69570;BME280;56781;42.292;23.146;2022-12-05T09:38:38;96465.63;;;8.46;74.79
69570;BME280;56781;42.292;23.146;2022-12-05T09:47:14;96458.72;;;8.60;75.15
69570;BME280;56781;42.292;23.146;2022-12-05T09:49:49;96436.50;;;8.29;76.36
69570;BME280;56781;42.292;23.146;2022-12-05T09:54:53;96437.00;;;8.26;76.01
69570;BME280;56781;42.292;23.146;2022-12-05T09:57:31;96426.09;;;8.32;75.98
69570;BME280;56781;42.292;23.146;2022-12-05T10:00:00;96455.19;;;8.34;75.47
69570;BME280;56781;42.292;23.146;2022-12-05T10:06:17;96419.53;;;7.87;76.29
69570;BME280;56781;42.292;23.146;2022-12-05T10:11:17;96373.53;;;7.49;77.59
69570;BME280;56781;42.292;23.146;2022-12-05T10:14:00;96418.38;;;7.73;77.69
69570;BME280;56781;42.292;23.146;2022-12-05T10:16:37;96412.06;;;7.89;76.33
69570;BME280;56781;42.292;23.146;2022-12-05T10:19:12;96442.03;;;8.17;76.57
69570;BME280;56781;42.292;23.146;2022-12-05T10:21:55;96406.78;;;7.99;76.64
69570;BME280;56781;42.292;23.146;2022-12-05T10:25:00;96439.88;;;8.14;77.05
69570;BME280;56781;42.292;23.146;2022-12-05T10:27:41;96427.38;;;8.19;76.71
69570;BME280;56781;42.292;23.146;2022-12-05T10:32:52;96415.00;;;8.86;73.79
69570;BME280;56781;42.292;23.146;2022-12-05T10:35:23;96392.31;;;9.09;72.93
69570;BME280;56781;42.292;23.146;2022-12-05T10:37:55;96445.41;;;9.47;72.55
69570;BME280;56781;42.292;23.146;2022-12-05T10:40:26;96400.53;;;9.39;72.19
69570;BME280;56781;42.292;23.146;2022-12-05T10:42:59;96385.31;;;9.39;71.09
69570;BME280;56781;42.292;23.146;2022-12-05T10:45:25;96385.00;;;9.56;71.21
69570;BME280;56781;42.292;23.146;2022-12-05T10:47:54;96380.69;;;9.65;70.50
69570;BME280;56781;42.292;23.146;2022-12-05T10:50:29;96380.44;;;9.62;70.44
69570;BME280;56781;42.292;23.146;2022-12-05T10:52:59;96385.41;;;9.99;69.74
69570;BME280;56781;42.292;23.146;2022-12-05T10:55:30;96366.09;;;10.07;70.14
69570;BME280;56781;42.292;23.146;2022-12-05T10:58:19;96379.38;;;10.23;68.80
69570;BME280;56781;42.292;23.146;2022-12-05T11:00:57;96415.50;;;10.75;67.97
69570;BME280;56781;42.292;23.146;2022-12-05T11:06:00;96394.72;;;10.96;66.74
69570;BME280;56781;42.292;23.146;2022-12-05T11:08:30;96365.03;;;10.53;66.94
69570;BME280;56781;42.292;23.146;2022-12-05T11:11:21;96367.09;;;10.16;69.21
69570;BME280;56781;42.292;23.146;2022-12-05T11:14:08;96335.66;;;9.93;69.34
69570;BME280;56781;42.292;23.146;2022-12-05T11:16:52;96351.56;;;10.24;69.23
69570;BME280;56781;42.292;23.146;2022-12-05T11:19:35;96397.84;;;10.74;68.58
69570;BME280;56781;42.292;23.146;2022-12-05T11:22:04;96381.03;;;10.63;69.14
69570;BME280;56781;42.292;23.146;2022-12-05T11:24:35;96387.72;;;10.65;68.70
69570;BME280;56781;42.292;23.146;2022-12-05T11:29:58;96325.25;;;10.41;68.77
69570;BME280;56781;42.292;23.146;2022-12-05T11:32:31;96324.09;;;10.52;67.56
69570;BME280;56781;42.292;23.146;2022-12-05T11:40:14;96352.38;;;10.98;68.76
69570;BME280;56781;42.292;23.146;2022-12-05T11:48:07;96319.88;;;10.41;68.50
69570;BME280;56781;42.292;23.146;2022-12-05T12:05:36;96299.56;;;10.40;69.01
69570;BME280;56781;42.292;23.146;2022-12-05T12:08:27;96323.78;;;10.59;69.65
69570;BME280;56781;42.292;23.146;2022-12-05T12:28:11;96295.41;;;10.87;69.23
69570;BME280;56781;42.292;23.146;2022-12-05T12:36:15;96262.97;;;10.64;69.48
69570;BME280;56781;42.292;23.146;2022-12-05T12:42:02;96280.88;;;10.93;68.50
69570;BME280;56781;42.292;23.146;2022-12-05T12:50:21;96243.91;;;10.66;69.50
69570;BME280;56781;42.292;23.146;2022-12-05T12:53:06;96239.31;;;10.72;69.14
69570;BME280;56781;42.292;23.146;2022-12-05T12:58:20;96242.47;;;10.50;69.65
69570;BME280;56781;42.292;23.146;2022-12-05T13:01:36;96253.41;;;10.53;69.58
69570;BME280;56781;42.292;23.146;2022-12-05T13:04:13;96247.16;;;10.63;69.59
69570;BME280;56781;42.292;23.146;2022-12-05T13:06:55;96259.53;;;10.59;69.42
69570;BME280;56781;42.292;23.146;2022-12-05T13:09:34;96229.28;;;10.24;69.98
69570;BME280;56781;42.292;23.146;2022-12-05T13:12:10;96249.41;;;10.11;70.66
69570;BME280;56781;42.292;23.146;2022-12-05T13:14:40;96207.16;;;9.69;71.35
69570;BME280;56781;42.292;23.146;2022-12-05T13:17:16;96254.84;;;9.96;71.84
69570;BME280;56781;42.292;23.146;2022-12-05T13:19:49;96247.53;;;9.72;72.52
69570;BME280;56781;42.292;23.146;2022-12-05T13:22:19;96236.69;;;9.53;72.65
69570;BME280;56781;42.292;23.146;2022-12-05T13:24:52;96264.16;;;9.64;73.45
69570;BME280;56781;42.292;23.146;2022-12-05T13:27:22;96240.50;;;9.32;73.67
69570;BME280;56781;42.292;23.146;2022-12-05T13:29:55;96272.19;;;9.59;73.70
69570;BME280;56781;42.292;23.146;2022-12-05T13:32:34;96250.41;;;9.31;74.36
69570;BME280;56781;42.292;23.146;2022-12-05T13:37:33;96224.84;;;9.00;75.30
69570;BME280;56781;42.292;23.146;2022-12-05T13:43:09;96228.41;;;8.75;76.57
69570;BME280;56781;42.292;23.146;2022-12-05T13:45:36;96237.97;;;8.86;76.78
69570;BME280;56781;42.292;23.146;2022-12-05T13:48:13;96277.94;;;9.17;76.61
69570;BME280;56781;42.292;23.146;2022-12-05T13:50:55;96262.50;;;9.03;76.80
69570;BME280;56781;42.292;23.146;2022-12-05T13:55:58;96232.91;;;8.79;77.22
69570;BME280;56781;42.292;23.146;2022-12-05T14:03:58;96229.50;;;8.63;78.57
69570;BME280;56781;42.292;23.146;2022-12-05T14:17:40;96237.47;;;8.38;80.47
69570;BME280;56781;42.292;23.146;2022-12-05T14:32:27;96239.59;;;7.95;81.12
69570;BME280;56781;42.292;23.146;2022-12-05T14:40:37;96281.97;;;7.91;82.06
69570;BME280;56781;42.292;23.146;2022-12-05T14:43:07;96275.00;;;7.70;82.98
69570;BME280;56781;42.292;23.146;2022-12-05T14:46:06;96269.94;;;7.63;82.66
69570;BME280;56781;42.292;23.146;2022-12-05T14:48:36;96268.75;;;7.33;83.57
69570;BME280;56781;42.292;23.146;2022-12-05T14:54:11;96266.75;;;7.03;84.94
69570;BME280;56781;42.292;23.146;2022-12-05T14:56:50;96299.59;;;7.24;85.04
69570;BME280;56781;42.292;23.146;2022-12-05T14:59:27;96268.81;;;6.91;84.83
69570;BME280;56781;42.292;23.146;2022-12-05T15:01:58;96264.78;;;6.83;85.79
69570;BME280;56781;42.292;23.146;2022-12-05T15:07:11;96253.69;;;6.54;86.59
69570;BME280;56781;42.292;23.146;2022-12-05T15:12:45;96259.97;;;6.06;84.20
69570;BME280;56781;42.292;23.146;2022-12-05T15:15:18;96278.06;;;6.09;85.04
69570;BME280;56781;42.292;23.146;2022-12-05T15:20:33;96251.75;;;5.58;87.50
69570;BME280;56781;42.292;23.146;2022-12-05T15:23:41;96302.09;;;5.48;88.82
69570;BME280;56781;42.292;23.146;2022-12-05T15:26:29;96272.13;;;4.86;90.03
69570;BME280;56781;42.292;23.146;2022-12-05T15:32:20;96269.19;;;4.66;90.32
69570;BME280;56781;42.292;23.146;2022-12-05T15:35:05;96287.13;;;4.25;91.19
69570;BME280;56781;42.292;23.146;2022-12-05T15:38:03;96268.47;;;4.03;91.94
69570;BME280;56781;42.292;23.146;2022-12-05T15:40:33;96261.09;;;4.05;92.69
69570;BME280;56781;42.292;23.146;2022-12-05T15:43:29;96299.16;;;4.16;92.30
69570;BME280;56781;42.292;23.146;2022-12-05T15:46:26;96291.53;;;4.03;92.54
69570;BME280;56781;42.292;23.146;2022-12-05T15:48:57;96251.81;;;3.74;92.45
69570;BME280;56781;42.292;23.146;2022-12-05T15:51:32;96278.78;;;3.71;92.71
69570;BME280;56781;42.292;23.146;2022-12-05T15:54:12;96296.19;;;3.67;93.29
69570;BME280;56781;42.292;23.146;2022-12-05T15:56:44;96267.38;;;3.42;93.25
69570;BME280;56781;42.292;23.146;2022-12-05T15:59:25;96312.25;;;3.77;92.99
69570;BME280;56781;42.292;23.146;2022-12-05T16:01:59;96286.41;;;3.67;92.30
69570;BME280;56781;42.292;23.146;2022-12-05T16:04:35;96272.25;;;3.62;93.07
69570;BME280;56781;42.292;23.146;2022-12-05T16:07:07;96324.72;;;3.93;93.82
69570;BME280;56781;42.292;23.146;2022-12-05T16:09:38;96320.09;;;4.00;93.13
69570;BME280;56781;42.292;23.146;2022-12-05T16:12:37;96303.84;;;3.80;92.85
69570;BME280;56781;42.292;23.146;2022-12-05T16:15:20;96323.44;;;3.96;93.52
69570;BME280;56781;42.292;23.146;2022-12-05T16:17:59;96321.16;;;3.99;93.20
69570;BME280;56781;42.292;23.146;2022-12-05T16:20:27;96318.22;;;3.84;93.44
69570;BME280;56781;42.292;23.146;2022-12-05T16:23:05;96295.47;;;3.71;92.79
69570;BME280;56781;42.292;23.146;2022-12-05T16:25:47;96312.69;;;3.57;93.71